sensor_id;sensor_type;location;lat;lon;timestamp;P1;durP1;ratioP1;P2;durP2;ratioP2
15130;SDS011;7666;50.920;4.628;2023-12-22T00:01:56;13.70;;;4.10;;
15130;SDS011;7666;50.920;4.628;2023-12-22T00:04:42;13.57;;;3.83;;
15130;SDS011;7666;50.920;4.628;2023-12-22T00:07:28;17.17;;;3.77;;
15130;SDS011;7666;50.920;4.628;2023-12-22T00:10:14;15.57;;;4.23;;
15130;SDS011;7666;50.920;4.628;2023-12-22T00:12:59;15.60;;;4.27;;
15130;SDS011;7666;50.920;4.628;2023-12-22T00:15:45;14.63;;;4.07;;
15130;SDS011;7666;50.920;4.628;2023-12-22T00:18:31;23.33;;;4.63;;
15130;SDS011;7666;50.920;4.628;2023-12-22T00:21:17;19.10;;;4.47;;
15130;SDS011;7666;50.920;4.628;2023-12-22T00:24:03;13.70;;;4.07;;
15130;SDS011;7666;50.920;4.628;2023-12-22T00:26:49;17.83;;;4.50;;
15130;SDS011;7666;50.920;4.628;2023-12-22T00:29:35;17.40;;;4.03;;
15130;SDS011;7666;50.920;4.628;2023-12-22T00:32:22;12.10;;;3.77;;
15130;SDS011;7666;50.920;4.628;2023-12-22T00:35:08;13.97;;;3.30;;
15130;SDS011;7666;50.920;4.628;2023-12-22T00:37:54;13.87;;;3.60;;
15130;SDS011;7666;50.920;4.628;2023-12-22T00:40:40;9.73;;;3.17;;
15130;SDS011;7666;50.920;4.628;2023-12-22T00:43:26;12.13;;;3.03;;
15130;SDS011;7666;50.920;4.628;2023-12-22T00:46:12;12.13;;;2.90;;
15130;SDS011;7666;50.920;4.628;2023-12-22T00:48:59;7.53;;;2.47;;
15130;SDS011;7666;50.920;4.628;2023-12-22T00:51:45;12.63;;;3.10;;
15130;SDS011;7666;50.920;4.628;2023-12-22T00:54:31;12.57;;;3.17;;
15130;SDS011;7666;50.920;4.628;2023-12-22T00:57:17;17.07;;;3.67;;
15130;SDS011;7666;50.920;4.628;2023-12-22T01:00:03;13.37;;;3.43;;
15130;SDS011;7666;50.920;4.628;2023-12-22T01:02:51;13.50;;;3.73;;
15130;SDS011;7666;50.920;4.628;2023-12-22T01:05:37;15.33;;;3.40;;
15130;SDS011;7666;50.920;4.628;2023-12-22T01:08:23;18.90;;;4.23;;
15130;SDS011;7666;50.920;4.628;2023-12-22T01:11:08;16.20;;;3.93;;
15130;SDS011;7666;50.920;4.628;2023-12-22T01:13:54;17.57;;;4.03;;
15130;SDS011;7666;50.920;4.628;2023-12-22T01:16:40;18.33;;;4.40;;
15130;SDS011;7666;50.920;4.628;2023-12-22T01:19:26;20.10;;;4.90;;
15130;SDS011;7666;50.920;4.628;2023-12-22T01:22:12;13.77;;;4.13;;
15130;SDS011;7666;50.920;4.628;2023-12-22T01:24:58;19.33;;;4.33;;
15130;SDS011;7666;50.920;4.628;2023-12-22T01:27:46;20.97;;;4.67;;
15130;SDS011;7666;50.920;4.628;2023-12-22T01:30:33;15.03;;;4.40;;
15130;SDS011;7666;50.920;4.628;2023-12-22T01:33:19;14.50;;;4.13;;
15130;SDS011;7666;50.920;4.628;2023-12-22T01:36:05;16.70;;;4.07;;
15130;SDS011;7666;50.920;4.628;2023-12-22T01:38:51;17.13;;;4.03;;
15130;SDS011;7666;50.920;4.628;2023-12-22T01:41:37;19.47;;;4.27;;
15130;SDS011;7666;50.920;4.628;2023-12-22T01:44:23;17.27;;;3.87;;
15130;SDS011;7666;50.920;4.628;2023-12-22T01:47:09;13.30;;;4.07;;
15130;SDS011;7666;50.920;4.628;2023-12-22T01:49:55;17.13;;;4.13;;
15130;SDS011;7666;50.920;4.628;2023-12-22T01:52:41;16.10;;;4.13;;
15130;SDS011;7666;50.920;4.628;2023-12-22T01:55:29;16.20;;;4.50;;
15130;SDS011;7666;50.920;4.628;2023-12-22T01:58:15;13.67;;;3.93;;
15130;SDS011;7666;50.920;4.628;2023-12-22T02:01:01;14.70;;;3.90;;
15130;SDS011;7666;50.920;4.628;2023-12-22T02:03:49;18.33;;;4.47;;
15130;SDS011;7666;50.920;4.628;2023-12-22T02:06:39;15.90;;;4.53;;
15130;SDS011;7666;50.920;4.628;2023-12-22T02:09:25;16.50;;;4.07;;
15130;SDS011;7666;50.920;4.628;2023-12-22T02:12:11;15.70;;;4.07;;
15130;SDS011;7666;50.920;4.628;2023-12-22T02:14:57;18.33;;;4.17;;
15130;SDS011;7666;50.920;4.628;2023-12-22T02:17:48;18.30;;;4.17;;
15130;SDS011;7666;50.920;4.628;2023-12-22T02:20:44;14.83;;;3.93;;
15130;SDS011;7666;50.920;4.628;2023-12-22T02:23:30;14.07;;;3.90;;
15130;SDS011;7666;50.920;4.628;2023-12-22T02:29:10;19.07;;;4.93;;
15130;SDS011;7666;50.920;4.628;2023-12-22T02:31:59;18.90;;;4.50;;
15130;SDS011;7666;50.920;4.628;2023-12-22T02:34:52;19.57;;;4.40;;
15130;SDS011;7666;50.920;4.628;2023-12-22T02:37:40;19.50;;;4.50;;
15130;SDS011;7666;50.920;4.628;2023-12-22T02:40:26;21.80;;;4.40;;
15130;SDS011;7666;50.920;4.628;2023-12-22T02:43:13;16.30;;;4.30;;
15130;SDS011;7666;50.920;4.628;2023-12-22T02:45:59;14.87;;;3.63;;
15130;SDS011;7666;50.920;4.628;2023-12-22T02:48:44;16.60;;;4.07;;
15130;SDS011;7666;50.920;4.628;2023-12-22T02:51:30;14.83;;;3.97;;
15130;SDS011;7666;50.920;4.628;2023-12-22T02:54:16;15.17;;;3.50;;
15130;SDS011;7666;50.920;4.628;2023-12-22T02:57:02;14.53;;;3.90;;
15130;SDS011;7666;50.920;4.628;2023-12-22T02:59:48;10.00;;;3.10;;
15130;SDS011;7666;50.920;4.628;2023-12-22T03:02:34;11.27;;;3.40;;
15130;SDS011;7666;50.920;4.628;2023-12-22T03:05:20;13.80;;;3.10;;
15130;SDS011;7666;50.920;4.628;2023-12-22T03:08:06;10.20;;;2.87;;
15130;SDS011;7666;50.920;4.628;2023-12-22T03:10:52;11.30;;;2.70;;
15130;SDS011;7666;50.920;4.628;2023-12-22T03:13:38;8.67;;;3.20;;
15130;SDS011;7666;50.920;4.628;2023-12-22T03:16:24;9.43;;;3.07;;
15130;SDS011;7666;50.920;4.628;2023-12-22T03:19:10;9.60;;;2.40;;
15130;SDS011;7666;50.920;4.628;2023-12-22T03:21:56;9.40;;;2.73;;
15130;SDS011;7666;50.920;4.628;2023-12-22T03:24:43;12.03;;;2.70;;
15130;SDS011;7666;50.920;4.628;2023-12-22T03:27:29;12.57;;;2.97;;
15130;SDS011;7666;50.920;4.628;2023-12-22T03:30:15;14.03;;;3.20;;
15130;SDS011;7666;50.920;4.628;2023-12-22T03:33:01;9.37;;;3.27;;
15130;SDS011;7666;50.920;4.628;2023-12-22T03:35:47;11.70;;;3.00;;
15130;SDS011;7666;50.920;4.628;2023-12-22T03:38:33;15.70;;;3.20;;
15130;SDS011;7666;50.920;4.628;2023-12-22T03:41:19;17.87;;;4.17;;
15130;SDS011;7666;50.920;4.628;2023-12-22T03:44:05;19.43;;;4.33;;
15130;SDS011;7666;50.920;4.628;2023-12-22T03:46:52;15.97;;;4.23;;
15130;SDS011;7666;50.920;4.628;2023-12-22T03:49:38;18.00;;;4.43;;
15130;SDS011;7666;50.920;4.628;2023-12-22T03:52:24;17.23;;;3.77;;
15130;SDS011;7666;50.920;4.628;2023-12-22T03:55:10;18.47;;;4.40;;
15130;SDS011;7666;50.920;4.628;2023-12-22T03:57:56;16.03;;;4.37;;
15130;SDS011;7666;50.920;4.628;2023-12-22T04:00:43;18.97;;;4.17;;
15130;SDS011;7666;50.920;4.628;2023-12-22T04:03:29;21.80;;;5.07;;
15130;SDS011;7666;50.920;4.628;2023-12-22T04:06:15;18.63;;;4.27;;
15130;SDS011;7666;50.920;4.628;2023-12-22T04:09:00;18.80;;;5.40;;
15130;SDS011;7666;50.920;4.628;2023-12-22T04:11:47;14.27;;;3.80;;
15130;SDS011;7666;50.920;4.628;2023-12-22T04:14:33;12.83;;;4.07;;
15130;SDS011;7666;50.920;4.628;2023-12-22T04:17:19;15.67;;;4.03;;
15130;SDS011;7666;50.920;4.628;2023-12-22T04:20:05;16.77;;;4.07;;
15130;SDS011;7666;50.920;4.628;2023-12-22T04:22:52;14.23;;;3.73;;
15130;SDS011;7666;50.920;4.628;2023-12-22T04:25:38;12.07;;;3.50;;
15130;SDS011;7666;50.920;4.628;2023-12-22T04:28:24;13.73;;;4.07;;
15130;SDS011;7666;50.920;4.628;2023-12-22T04:31:10;17.77;;;4.33;;
15130;SDS011;7666;50.920;4.628;2023-12-22T04:33:56;18.73;;;4.43;;
15130;SDS011;7666;50.920;4.628;2023-12-22T04:36:42;17.60;;;4.40;;
15130;SDS011;7666;50.920;4.628;2023-12-22T04:39:28;15.83;;;4.70;;
15130;SDS011;7666;50.920;4.628;2023-12-22T04:42:14;21.77;;;5.37;;
15130;SDS011;7666;50.920;4.628;2023-12-22T04:45:00;20.33;;;5.40;;
15130;SDS011;7666;50.920;4.628;2023-12-22T04:47:46;21.97;;;5.53;;
15130;SDS011;7666;50.920;4.628;2023-12-22T04:50:32;22.53;;;4.80;;
15130;SDS011;7666;50.920;4.628;2023-12-22T04:53:18;20.13;;;4.43;;
15130;SDS011;7666;50.920;4.628;2023-12-22T04:56:04;22.43;;;5.80;;
15130;SDS011;7666;50.920;4.628;2023-12-22T04:58:50;22.43;;;5.20;;
15130;SDS011;7666;50.920;4.628;2023-12-22T05:01:36;25.70;;;5.90;;
15130;SDS011;7666;50.920;4.628;2023-12-22T05:04:22;18.80;;;5.10;;
15130;SDS011;7666;50.920;4.628;2023-12-22T05:07:08;25.13;;;5.60;;
15130;SDS011;7666;50.920;4.628;2023-12-22T05:09:55;20.60;;;5.30;;
15130;SDS011;7666;50.920;4.628;2023-12-22T05:12:41;21.33;;;5.27;;
15130;SDS011;7666;50.920;4.628;2023-12-22T05:15:27;22.83;;;5.37;;
15130;SDS011;7666;50.920;4.628;2023-12-22T05:18:13;22.53;;;5.83;;
15130;SDS011;7666;50.920;4.628;2023-12-22T05:20:59;20.97;;;5.83;;
15130;SDS011;7666;50.920;4.628;2023-12-22T05:23:45;23.50;;;5.63;;
15130;SDS011;7666;50.920;4.628;2023-12-22T05:26:31;22.20;;;5.77;;
15130;SDS011;7666;50.920;4.628;2023-12-22T05:29:17;25.43;;;6.50;;
15130;SDS011;7666;50.920;4.628;2023-12-22T05:32:04;20.20;;;5.87;;
15130;SDS011;7666;50.920;4.628;2023-12-22T05:34:50;24.70;;;5.80;;
15130;SDS011;7666;50.920;4.628;2023-12-22T05:37:36;22.93;;;6.10;;
15130;SDS011;7666;50.920;4.628;2023-12-22T05:40:22;23.63;;;5.93;;
15130;SDS011;7666;50.920;4.628;2023-12-22T05:43:08;34.73;;;6.67;;
15130;SDS011;7666;50.920;4.628;2023-12-22T05:45:54;26.47;;;6.13;;
15130;SDS011;7666;50.920;4.628;2023-12-22T05:48:40;26.07;;;6.27;;
15130;SDS011;7666;50.920;4.628;2023-12-22T05:51:26;24.40;;;6.33;;
15130;SDS011;7666;50.920;4.628;2023-12-22T05:54:11;24.70;;;5.63;;
15130;SDS011;7666;50.920;4.628;2023-12-22T05:56:58;30.53;;;6.87;;
15130;SDS011;7666;50.920;4.628;2023-12-22T05:59:44;26.13;;;5.83;;
15130;SDS011;7666;50.920;4.628;2023-12-22T06:02:30;21.23;;;5.63;;
15130;SDS011;7666;50.920;4.628;2023-12-22T06:05:16;26.53;;;6.40;;
15130;SDS011;7666;50.920;4.628;2023-12-22T06:08:01;26.17;;;6.47;;
15130;SDS011;7666;50.920;4.628;2023-12-22T06:10:48;26.50;;;5.57;;
15130;SDS011;7666;50.920;4.628;2023-12-22T06:13:33;23.43;;;5.40;;
15130;SDS011;7666;50.920;4.628;2023-12-22T06:16:19;19.77;;;5.43;;
15130;SDS011;7666;50.920;4.628;2023-12-22T06:19:05;20.20;;;5.10;;
15130;SDS011;7666;50.920;4.628;2023-12-22T06:21:51;24.03;;;5.70;;
15130;SDS011;7666;50.920;4.628;2023-12-22T06:24:37;21.13;;;5.80;;
15130;SDS011;7666;50.920;4.628;2023-12-22T06:27:23;24.43;;;5.87;;
15130;SDS011;7666;50.920;4.628;2023-12-22T06:30:10;21.53;;;5.97;;
15130;SDS011;7666;50.920;4.628;2023-12-22T06:32:56;21.87;;;5.37;;
15130;SDS011;7666;50.920;4.628;2023-12-22T06:35:42;21.33;;;5.40;;
15130;SDS011;7666;50.920;4.628;2023-12-22T06:38:30;23.07;;;5.67;;
15130;SDS011;7666;50.920;4.628;2023-12-22T06:41:26;17.93;;;4.97;;
15130;SDS011;7666;50.920;4.628;2023-12-22T06:44:15;19.57;;;5.10;;
15130;SDS011;7666;50.920;4.628;2023-12-22T06:47:02;18.50;;;4.70;;
15130;SDS011;7666;50.920;4.628;2023-12-22T06:49:48;17.97;;;4.30;;
15130;SDS011;7666;50.920;4.628;2023-12-22T06:52:33;14.80;;;4.57;;
15130;SDS011;7666;50.920;4.628;2023-12-22T06:55:19;18.87;;;5.07;;
15130;SDS011;7666;50.920;4.628;2023-12-22T06:58:05;18.57;;;4.80;;
15130;SDS011;7666;50.920;4.628;2023-12-22T07:00:51;16.43;;;4.60;;
15130;SDS011;7666;50.920;4.628;2023-12-22T07:03:37;12.70;;;3.43;;
15130;SDS011;7666;50.920;4.628;2023-12-22T07:06:24;13.20;;;3.57;;
15130;SDS011;7666;50.920;4.628;2023-12-22T07:12:05;14.20;;;3.33;;
15130;SDS011;7666;50.920;4.628;2023-12-22T07:14:51;15.20;;;3.53;;
15130;SDS011;7666;50.920;4.628;2023-12-22T07:17:37;12.77;;;3.50;;
15130;SDS011;7666;50.920;4.628;2023-12-22T07:20:23;15.67;;;3.50;;
15130;SDS011;7666;50.920;4.628;2023-12-22T07:23:12;16.27;;;3.47;;
15130;SDS011;7666;50.920;4.628;2023-12-22T07:25:58;13.97;;;3.20;;
15130;SDS011;7666;50.920;4.628;2023-12-22T07:28:44;13.67;;;3.13;;
15130;SDS011;7666;50.920;4.628;2023-12-22T07:31:30;10.50;;;3.03;;
15130;SDS011;7666;50.920;4.628;2023-12-22T07:34:16;15.60;;;3.70;;
15130;SDS011;7666;50.920;4.628;2023-12-22T07:37:02;12.93;;;3.17;;
15130;SDS011;7666;50.920;4.628;2023-12-22T07:39:50;12.23;;;3.70;;
15130;SDS011;7666;50.920;4.628;2023-12-22T07:42:36;10.57;;;2.97;;
15130;SDS011;7666;50.920;4.628;2023-12-22T07:45:23;11.27;;;3.50;;
15130;SDS011;7666;50.920;4.628;2023-12-22T07:48:08;10.67;;;3.00;;
15130;SDS011;7666;50.920;4.628;2023-12-22T07:50:54;10.90;;;3.13;;
15130;SDS011;7666;50.920;4.628;2023-12-22T07:53:40;10.50;;;3.17;;
15130;SDS011;7666;50.920;4.628;2023-12-22T07:56:26;10.93;;;2.83;;
15130;SDS011;7666;50.920;4.628;2023-12-22T07:59:12;8.60;;;2.83;;
15130;SDS011;7666;50.920;4.628;2023-12-22T08:01:58;10.43;;;2.90;;
15130;SDS011;7666;50.920;4.628;2023-12-22T08:04:44;7.10;;;2.80;;
15130;SDS011;7666;50.920;4.628;2023-12-22T08:07:30;9.00;;;2.97;;
15130;SDS011;7666;50.920;4.628;2023-12-22T08:10:16;10.67;;;2.50;;
15130;SDS011;7666;50.920;4.628;2023-12-22T08:13:02;7.20;;;2.63;;
15130;SDS011;7666;50.920;4.628;2023-12-22T08:15:49;6.63;;;2.40;;
15130;SDS011;7666;50.920;4.628;2023-12-22T08:18:35;6.40;;;2.30;;
15130;SDS011;7666;50.920;4.628;2023-12-22T08:21:21;6.20;;;2.23;;
15130;SDS011;7666;50.920;4.628;2023-12-22T08:24:07;6.20;;;2.20;;
15130;SDS011;7666;50.920;4.628;2023-12-22T08:26:53;8.10;;;2.20;;
15130;SDS011;7666;50.920;4.628;2023-12-22T08:29:39;5.67;;;2.03;;
15130;SDS011;7666;50.920;4.628;2023-12-22T08:32:25;5.43;;;2.00;;
15130;SDS011;7666;50.920;4.628;2023-12-22T08:35:11;4.70;;;2.23;;
15130;SDS011;7666;50.920;4.628;2023-12-22T08:37:57;5.27;;;2.60;;
15130;SDS011;7666;50.920;4.628;2023-12-22T08:40:43;3.03;;;2.00;;
15130;SDS011;7666;50.920;4.628;2023-12-22T08:43:29;6.00;;;2.77;;
15130;SDS011;7666;50.920;4.628;2023-12-22T08:46:15;6.23;;;2.93;;
15130;SDS011;7666;50.920;4.628;2023-12-22T08:49:01;5.70;;;2.90;;
15130;SDS011;7666;50.920;4.628;2023-12-22T08:51:48;5.80;;;3.03;;
15130;SDS011;7666;50.920;4.628;2023-12-22T08:54:34;4.70;;;3.20;;
15130;SDS011;7666;50.920;4.628;2023-12-22T08:57:20;4.67;;;3.47;;
15130;SDS011;7666;50.920;4.628;2023-12-22T09:00:06;5.47;;;3.97;;
15130;SDS011;7666;50.920;4.628;2023-12-22T09:02:52;5.90;;;3.33;;
15130;SDS011;7666;50.920;4.628;2023-12-22T09:05:38;6.83;;;3.33;;
15130;SDS011;7666;50.920;4.628;2023-12-22T09:08:25;6.83;;;3.83;;
15130;SDS011;7666;50.920;4.628;2023-12-22T09:11:12;6.60;;;3.60;;
15130;SDS011;7666;50.920;4.628;2023-12-22T09:14:00;5.07;;;3.53;;
15130;SDS011;7666;50.920;4.628;2023-12-22T09:16:46;7.23;;;3.60;;
15130;SDS011;7666;50.920;4.628;2023-12-22T09:19:32;6.43;;;3.87;;
15130;SDS011;7666;50.920;4.628;2023-12-22T09:22:19;6.40;;;3.80;;
15130;SDS011;7666;50.920;4.628;2023-12-22T09:25:05;6.83;;;4.17;;
15130;SDS011;7666;50.920;4.628;2023-12-22T09:27:51;9.17;;;4.20;;
15130;SDS011;7666;50.920;4.628;2023-12-22T09:30:37;9.27;;;4.10;;
15130;SDS011;7666;50.920;4.628;2023-12-22T09:33:23;6.33;;;4.10;;
15130;SDS011;7666;50.920;4.628;2023-12-22T09:36:09;7.23;;;4.10;;
15130;SDS011;7666;50.920;4.628;2023-12-22T09:38:55;9.40;;;4.17;;
15130;SDS011;7666;50.920;4.628;2023-12-22T09:41:41;7.13;;;4.07;;
15130;SDS011;7666;50.920;4.628;2023-12-22T09:44:32;9.23;;;4.23;;
15130;SDS011;7666;50.920;4.628;2023-12-22T09:47:19;8.90;;;3.90;;
15130;SDS011;7666;50.920;4.628;2023-12-22T09:50:08;9.47;;;4.57;;
15130;SDS011;7666;50.920;4.628;2023-12-22T09:52:55;9.47;;;4.40;;
15130;SDS011;7666;50.920;4.628;2023-12-22T09:55:42;7.50;;;4.40;;
15130;SDS011;7666;50.920;4.628;2023-12-22T09:58:31;8.30;;;3.13;;
15130;SDS011;7666;50.920;4.628;2023-12-22T10:01:20;8.60;;;3.23;;
15130;SDS011;7666;50.920;4.628;2023-12-22T10:04:08;5.70;;;2.90;;
15130;SDS011;7666;50.920;4.628;2023-12-22T10:06:56;7.73;;;2.47;;
15130;SDS011;7666;50.920;4.628;2023-12-22T10:09:46;8.33;;;2.53;;
15130;SDS011;7666;50.920;4.628;2023-12-22T10:12:33;5.83;;;2.10;;
15130;SDS011;7666;50.920;4.628;2023-12-22T10:15:19;6.70;;;1.77;;
15130;SDS011;7666;50.920;4.628;2023-12-22T10:18:09;5.40;;;1.57;;
15130;SDS011;7666;50.920;4.628;2023-12-22T10:20:55;5.03;;;1.33;;
15130;SDS011;7666;50.920;4.628;2023-12-22T10:23:41;6.67;;;1.57;;
15130;SDS011;7666;50.920;4.628;2023-12-22T10:26:27;3.17;;;1.10;;
15130;SDS011;7666;50.920;4.628;2023-12-22T10:29:13;4.30;;;1.17;;
15130;SDS011;7666;50.920;4.628;2023-12-22T10:32:03;4.40;;;1.17;;
15130;SDS011;7666;50.920;4.628;2023-12-22T10:34:52;5.57;;;1.20;;
15130;SDS011;7666;50.920;4.628;2023-12-22T10:37:38;4.67;;;1.20;;
15130;SDS011;7666;50.920;4.628;2023-12-22T10:40:25;2.33;;;1.10;;
15130;SDS011;7666;50.920;4.628;2023-12-22T10:43:11;5.00;;;1.10;;
15130;SDS011;7666;50.920;4.628;2023-12-22T10:45:57;5.13;;;1.23;;
15130;SDS011;7666;50.920;4.628;2023-12-22T10:48:43;3.83;;;1.03;;
15130;SDS011;7666;50.920;4.628;2023-12-22T10:51:30;3.93;;;1.10;;
15130;SDS011;7666;50.920;4.628;2023-12-22T10:54:18;4.73;;;1.07;;
15130;SDS011;7666;50.920;4.628;2023-12-22T10:57:05;3.93;;;1.13;;
15130;SDS011;7666;50.920;4.628;2023-12-22T10:59:56;3.93;;;1.00;;
15130;SDS011;7666;50.920;4.628;2023-12-22T11:02:43;4.97;;;1.10;;
15130;SDS011;7666;50.920;4.628;2023-12-22T11:05:34;2.60;;;1.20;;
15130;SDS011;7666;50.920;4.628;2023-12-22T11:08:22;4.43;;;1.57;;
15130;SDS011;7666;50.920;4.628;2023-12-22T11:11:16;2.83;;;1.10;;
15130;SDS011;7666;50.920;4.628;2023-12-22T11:14:06;4.47;;;1.57;;
15130;SDS011;7666;50.920;4.628;2023-12-22T11:16:53;4.90;;;1.53;;
15130;SDS011;7666;50.920;4.628;2023-12-22T11:19:40;6.87;;;1.77;;
15130;SDS011;7666;50.920;4.628;2023-12-22T11:22:27;4.70;;;1.63;;
15130;SDS011;7666;50.920;4.628;2023-12-22T11:25:16;5.00;;;1.30;;
15130;SDS011;7666;50.920;4.628;2023-12-22T11:28:05;5.83;;;2.03;;
15130;SDS011;7666;50.920;4.628;2023-12-22T11:30:52;4.27;;;1.50;;
15130;SDS011;7666;50.920;4.628;2023-12-22T11:33:44;5.13;;;1.40;;
15130;SDS011;7666;50.920;4.628;2023-12-22T11:36:31;4.87;;;1.47;;
15130;SDS011;7666;50.920;4.628;2023-12-22T11:39:19;5.83;;;1.60;;
15130;SDS011;7666;50.920;4.628;2023-12-22T11:42:05;7.30;;;1.80;;
15130;SDS011;7666;50.920;4.628;2023-12-22T11:44:57;3.37;;;1.30;;
15130;SDS011;7666;50.920;4.628;2023-12-22T11:47:43;7.23;;;1.53;;
15130;SDS011;7666;50.920;4.628;2023-12-22T11:50:30;5.33;;;1.40;;
15130;SDS011;7666;50.920;4.628;2023-12-22T11:53:23;4.00;;;1.03;;
15130;SDS011;7666;50.920;4.628;2023-12-22T11:56:10;5.80;;;1.10;;
15130;SDS011;7666;50.920;4.628;2023-12-22T11:58:58;3.60;;;1.00;;
15130;SDS011;7666;50.920;4.628;2023-12-22T12:01:46;2.87;;;1.20;;
15130;SDS011;7666;50.920;4.628;2023-12-22T12:04:40;5.73;;;1.37;;
15130;SDS011;7666;50.920;4.628;2023-12-22T12:13:22;4.10;;;1.27;;
15130;SDS011;7666;50.920;4.628;2023-12-22T12:16:18;3.37;;;0.87;;
15130;SDS011;7666;50.920;4.628;2023-12-22T12:19:07;4.40;;;1.10;;
15130;SDS011;7666;50.920;4.628;2023-12-22T12:21:54;4.00;;;1.20;;
15130;SDS011;7666;50.920;4.628;2023-12-22T12:24:41;4.60;;;1.03;;
15130;SDS011;7666;50.920;4.628;2023-12-22T12:27:28;5.00;;;1.20;;
15130;SDS011;7666;50.920;4.628;2023-12-22T12:30:14;2.57;;;0.80;;
15130;SDS011;7666;50.920;4.628;2023-12-22T12:33:10;2.17;;;0.90;;
15130;SDS011;7666;50.920;4.628;2023-12-22T12:35:59;3.53;;;1.07;;
15130;SDS011;7666;50.920;4.628;2023-12-22T12:38:55;2.33;;;1.13;;
15130;SDS011;7666;50.920;4.628;2023-12-22T12:41:52;3.53;;;1.10;;
15130;SDS011;7666;50.920;4.628;2023-12-22T12:44:39;4.27;;;1.13;;
15130;SDS011;7666;50.920;4.628;2023-12-22T12:47:26;3.30;;;1.00;;
15130;SDS011;7666;50.920;4.628;2023-12-22T12:50:12;3.97;;;1.17;;
15130;SDS011;7666;50.920;4.628;2023-12-22T12:52:58;4.13;;;1.10;;
15130;SDS011;7666;50.920;4.628;2023-12-22T12:55:45;3.93;;;1.13;;
15130;SDS011;7666;50.920;4.628;2023-12-22T12:58:31;5.83;;;1.37;;
15130;SDS011;7666;50.920;4.628;2023-12-22T13:01:17;5.57;;;1.70;;
15130;SDS011;7666;50.920;4.628;2023-12-22T13:04:04;4.20;;;1.30;;
15130;SDS011;7666;50.920;4.628;2023-12-22T13:06:50;4.33;;;1.30;;
15130;SDS011;7666;50.920;4.628;2023-12-22T13:09:36;6.43;;;1.40;;
15130;SDS011;7666;50.920;4.628;2023-12-22T13:12:22;5.40;;;1.37;;
15130;SDS011;7666;50.920;4.628;2023-12-22T13:15:09;5.00;;;1.47;;
15130;SDS011;7666;50.920;4.628;2023-12-22T13:17:55;3.67;;;1.20;;
15130;SDS011;7666;50.920;4.628;2023-12-22T13:20:42;3.77;;;1.10;;
15130;SDS011;7666;50.920;4.628;2023-12-22T13:23:28;5.50;;;1.30;;
15130;SDS011;7666;50.920;4.628;2023-12-22T13:26:17;3.03;;;0.90;;
15130;SDS011;7666;50.920;4.628;2023-12-22T13:29:04;5.20;;;1.13;;
15130;SDS011;7666;50.920;4.628;2023-12-22T13:31:54;4.80;;;1.30;;
15130;SDS011;7666;50.920;4.628;2023-12-22T13:34:46;6.10;;;1.30;;
15130;SDS011;7666;50.920;4.628;2023-12-22T13:37:40;4.10;;;1.40;;
15130;SDS011;7666;50.920;4.628;2023-12-22T13:40:27;3.77;;;1.27;;
15130;SDS011;7666;50.920;4.628;2023-12-22T13:43:13;3.40;;;1.00;;
15130;SDS011;7666;50.920;4.628;2023-12-22T13:45:59;2.40;;;1.07;;
15130;SDS011;7666;50.920;4.628;2023-12-22T13:48:45;3.93;;;1.03;;
15130;SDS011;7666;50.920;4.628;2023-12-22T13:51:41;4.77;;;1.23;;
15130;SDS011;7666;50.920;4.628;2023-12-22T13:54:33;4.27;;;1.10;;
15130;SDS011;7666;50.920;4.628;2023-12-22T13:57:20;4.40;;;1.23;;
15130;SDS011;7666;50.920;4.628;2023-12-22T14:03:04;3.47;;;1.30;;
15130;SDS011;7666;50.920;4.628;2023-12-22T14:05:50;5.53;;;1.30;;
15130;SDS011;7666;50.920;4.628;2023-12-22T14:08:41;6.07;;;1.13;;
15130;SDS011;7666;50.920;4.628;2023-12-22T14:11:27;4.20;;;1.30;;
15130;SDS011;7666;50.920;4.628;2023-12-22T14:14:13;3.93;;;1.33;;
15130;SDS011;7666;50.920;4.628;2023-12-22T14:17:00;2.33;;;0.73;;
15130;SDS011;7666;50.920;4.628;2023-12-22T14:19:46;6.97;;;1.50;;
15130;SDS011;7666;50.920;4.628;2023-12-22T14:22:34;4.87;;;1.40;;
15130;SDS011;7666;50.920;4.628;2023-12-22T14:25:21;3.77;;;1.00;;
15130;SDS011;7666;50.920;4.628;2023-12-22T14:28:07;4.40;;;1.40;;
15130;SDS011;7666;50.920;4.628;2023-12-22T14:30:53;3.63;;;1.17;;
15130;SDS011;7666;50.920;4.628;2023-12-22T14:33:39;4.87;;;1.20;;
15130;SDS011;7666;50.920;4.628;2023-12-22T14:36:25;5.37;;;1.23;;
15130;SDS011;7666;50.920;4.628;2023-12-22T14:39:11;4.17;;;1.10;;
15130;SDS011;7666;50.920;4.628;2023-12-22T14:41:58;7.33;;;1.83;;
15130;SDS011;7666;50.920;4.628;2023-12-22T14:44:44;4.63;;;1.30;;
15130;SDS011;7666;50.920;4.628;2023-12-22T14:47:30;4.23;;;1.40;;
15130;SDS011;7666;50.920;4.628;2023-12-22T14:50:16;3.13;;;0.90;;
15130;SDS011;7666;50.920;4.628;2023-12-22T14:53:03;5.27;;;1.30;;
15130;SDS011;7666;50.920;4.628;2023-12-22T14:55:49;4.80;;;1.57;;
15130;SDS011;7666;50.920;4.628;2023-12-22T14:58:38;5.20;;;1.57;;
15130;SDS011;7666;50.920;4.628;2023-12-22T15:01:24;5.33;;;1.20;;
15130;SDS011;7666;50.920;4.628;2023-12-22T15:04:10;6.23;;;1.60;;
15130;SDS011;7666;50.920;4.628;2023-12-22T15:06:56;4.53;;;1.23;;
15130;SDS011;7666;50.920;4.628;2023-12-22T15:09:42;3.17;;;0.97;;
15130;SDS011;7666;50.920;4.628;2023-12-22T15:12:28;5.43;;;1.20;;
15130;SDS011;7666;50.920;4.628;2023-12-22T15:15:17;4.57;;;1.43;;
15130;SDS011;7666;50.920;4.628;2023-12-22T15:18:04;4.30;;;1.40;;
15130;SDS011;7666;50.920;4.628;2023-12-22T15:20:50;6.53;;;1.40;;
15130;SDS011;7666;50.920;4.628;2023-12-22T15:23:39;6.73;;;1.40;;
15130;SDS011;7666;50.920;4.628;2023-12-22T15:26:25;3.17;;;1.00;;
15130;SDS011;7666;50.920;4.628;2023-12-22T15:29:11;6.57;;;1.23;;
15130;SDS011;7666;50.920;4.628;2023-12-22T15:31:57;4.10;;;1.23;;
15130;SDS011;7666;50.920;4.628;2023-12-22T15:34:45;4.17;;;1.20;;
15130;SDS011;7666;50.920;4.628;2023-12-22T15:37:32;8.50;;;1.87;;
15130;SDS011;7666;50.920;4.628;2023-12-22T15:40:18;6.23;;;1.40;;
15130;SDS011;7666;50.920;4.628;2023-12-22T15:43:04;4.90;;;1.40;;
15130;SDS011;7666;50.920;4.628;2023-12-22T15:45:50;5.40;;;1.30;;
15130;SDS011;7666;50.920;4.628;2023-12-22T15:48:36;5.60;;;1.40;;
15130;SDS011;7666;50.920;4.628;2023-12-22T15:51:23;6.30;;;1.63;;
15130;SDS011;7666;50.920;4.628;2023-12-22T15:54:09;4.47;;;1.47;;
15130;SDS011;7666;50.920;4.628;2023-12-22T15:56:55;6.63;;;1.20;;
15130;SDS011;7666;50.920;4.628;2023-12-22T15:59:41;3.87;;;1.30;;
15130;SDS011;7666;50.920;4.628;2023-12-22T16:02:27;3.63;;;1.20;;
15130;SDS011;7666;50.920;4.628;2023-12-22T16:05:13;3.87;;;1.10;;
15130;SDS011;7666;50.920;4.628;2023-12-22T16:07:59;4.97;;;1.27;;
15130;SDS011;7666;50.920;4.628;2023-12-22T16:10:47;5.53;;;1.50;;
15130;SDS011;7666;50.920;4.628;2023-12-22T16:13:33;4.37;;;1.40;;
15130;SDS011;7666;50.920;4.628;2023-12-22T16:16:19;7.90;;;1.63;;
15130;SDS011;7666;50.920;4.628;2023-12-22T16:19:06;5.27;;;1.07;;
15130;SDS011;7666;50.920;4.628;2023-12-22T16:21:51;5.20;;;1.30;;
15130;SDS011;7666;50.920;4.628;2023-12-22T16:24:38;2.70;;;1.07;;
15130;SDS011;7666;50.920;4.628;2023-12-22T16:27:25;4.17;;;1.10;;
15130;SDS011;7666;50.920;4.628;2023-12-22T16:30:10;7.30;;;1.37;;
15130;SDS011;7666;50.920;4.628;2023-12-22T16:32:57;5.30;;;1.80;;
15130;SDS011;7666;50.920;4.628;2023-12-22T16:35:43;6.23;;;1.40;;
15130;SDS011;7666;50.920;4.628;2023-12-22T16:38:29;5.87;;;1.33;;
15130;SDS011;7666;50.920;4.628;2023-12-22T16:41:15;4.97;;;1.20;;
15130;SDS011;7666;50.920;4.628;2023-12-22T16:44:01;5.50;;;1.40;;
15130;SDS011;7666;50.920;4.628;2023-12-22T16:46:47;3.83;;;1.30;;
15130;SDS011;7666;50.920;4.628;2023-12-22T16:49:35;6.57;;;1.60;;
15130;SDS011;7666;50.920;4.628;2023-12-22T16:52:21;5.33;;;1.47;;
15130;SDS011;7666;50.920;4.628;2023-12-22T16:55:07;5.33;;;1.60;;
15130;SDS011;7666;50.920;4.628;2023-12-22T16:57:53;5.63;;;2.10;;
15130;SDS011;7666;50.920;4.628;2023-12-22T17:00:40;7.50;;;2.60;;
15130;SDS011;7666;50.920;4.628;2023-12-22T17:03:26;5.63;;;1.67;;
15130;SDS011;7666;50.920;4.628;2023-12-22T17:06:12;7.73;;;2.90;;
15130;SDS011;7666;50.920;4.628;2023-12-22T17:08:58;5.13;;;1.40;;